KIPL/IPL METAR and TAF weather

Enter ICAO airport designator
Station Type Date Time Source
KIPL METAR 2019/08/18 18:53 UTC NOAA

KIPL 181853Z AUTO 17006KT 10SM CLR 37/09 A2978 RMK AO2 SLP084 T03670094


Station Type Date Time Source
KIPL Decoded METAR 2019/08/18 18:53 UTC NOAA

Station name not available
Aug 18, 2019 - 02:53 PM EDT / 2019.08.18 1853 UTC
Wind: from the S (170 degrees) at 7 MPH (6 KT):0
Visibility: 10 mile(s):0
Sky conditions: clear
Temperature: 98.1 F (36.7 C)
Heat index: 94.8 F (34.9 C):1
Dew Point: 48.9 F (9.4 C)
Relative Humidity: 19%
Pressure (altimeter): 29.78 in. Hg (1008 hPa)
ob: KIPL 181853Z AUTO 17006KT 10SM CLR 37/09 A2978 RMK AO2 SLP084 T03670094
cycle: 19

Station Type Date Time Source
KIPL TAF 2019/08/18 18:42 UTC NOAA

TAF KIPL 181739Z 1818/1918 15007KT P6SM FEW250
FM190300 26011KT P6SM SKC
FM191400 15005KT P6SM SKC

Example: see airport list